Time;durP1;ratioP1;P1;durP2;ratioP2;P2;SDS_P1;SDS_P2;PMS_P1;PMS_P2;Temp;Humidity;BMP_temperature;BMP_pressure;BME280_temperature;BME280_humidity;BME280_pressure;Samples;Min_cycle;Max_cycle;Signal;HPM_P1;HPM_P2
2021/10/10 00:00:47;;;;;;;10.60;7.55;;;;;;;7.82;58.50;100462.75;5025384;28;20467;-78
2021/10/10 00:03:13;;;;;;;12.07;8.30;;;;;;;7.91;58.70;100472.94;5058621;28;20040;-78
2021/10/10 00:05:39;;;;;;;10.43;7.80;;;;;;;7.98;57.95;100469.03;5075023;28;20135;-78
2021/10/10 00:08:05;;;;;;;10.32;7.75;;;;;;;8.08;58.04;100484.53;5058700;28;20051;-78
2021/10/10 00:10:31;;;;;;;16.73;8.00;;;;;;;8.15;57.88;100483.25;5074962;28;20463;-77
2021/10/10 00:12:58;;;;;;;11.75;7.72;;;;;;;8.27;57.43;100459.53;5041552;28;20043;-78
2021/10/10 00:15:24;;;;;;;12.15;8.07;;;;;;;8.46;56.95;100471.88;5075135;28;20040;-78
2021/10/10 00:17:50;;;;;;;15.25;7.65;;;;;;;8.44;56.70;100458.66;5075684;28;20145;-78
2021/10/10 00:20:16;;;;;;;13.98;8.13;;;;;;;8.65;56.51;100482.41;5076482;28;20487;-78
2021/10/10 00:22:42;;;;;;;10.13;7.50;;;;;;;8.68;56.21;100479.59;5060792;28;20040;-78
2021/10/10 00:25:08;;;;;;;15.43;8.00;;;;;;;8.68;56.00;100460.94;5092943;28;20139;-78
2021/10/10 00:27:35;;;;;;;12.50;7.85;;;;;;;8.81;56.22;100482.47;5075932;28;20105;-77
2021/10/10 00:30:02;;;;;;;11.32;7.43;;;;;;;8.73;56.03;100477.56;5058570;28;20486;-78
2021/10/10 00:32:29;;;;;;;10.77;7.32;;;;;;;8.78;55.98;100483.50;5059210;28;20173;-79
2021/10/10 00:34:55;;;;;;;11.07;7.28;;;;;;;8.75;55.78;100471.19;5042149;28;20131;-77
2021/10/10 00:37:21;;;;;;;10.80;7.53;;;;;;;8.82;55.72;100468.19;5074360;28;20144;-78
2021/10/10 00:39:47;;;;;;;15.52;7.82;;;;;;;8.96;55.33;100484.28;5041463;28;20044;-78
2021/10/10 00:42:13;;;;;;;10.93;7.68;;;;;;;8.94;54.99;100481.69;5077283;28;20506;-77
2021/10/10 00:44:39;;;;;;;12.73;7.50;;;;;;;8.89;55.36;100480.25;5061882;28;20134;-78
2021/10/10 00:47:05;;;;;;;11.38;7.70;;;;;;;8.94;55.27;100481.69;5062283;28;20044;-78
2021/10/10 00:49:30;;;;;;;12.85;7.13;;;;;;;9.02;54.83;100475.94;5061918;28;20490;-78
2021/10/10 00:51:57;;;;;;;12.43;7.40;;;;;;;8.97;54.93;100478.88;5062028;28;20044;-79
2021/10/10 00:54:24;;;;;;;10.50;7.45;;;;;;;9.00;54.87;100489.38;5062194;28;20471;-79
2021/10/10 00:56:50;;;;;;;10.85;7.40;;;;;;;8.97;54.86;100489.53;5061935;28;20550;-78
2021/10/10 00:59:18;;;;;;;10.65;7.75;;;;;;;8.85;55.51;100484.88;5062173;28;20081;-79
2021/10/10 01:01:44;;;;;;;15.20;7.60;;;;;;;8.79;55.30;100482.53;5094844;28;20459;-78
2021/10/10 01:04:10;;;;;;;10.95;7.88;;;;;;;8.90;55.20;100487.28;5062116;28;20389;-78
2021/10/10 01:06:36;;;;;;;14.32;7.38;;;;;;;8.80;55.20;100486.94;5061616;28;20040;-78
2021/10/10 01:09:02;;;;;;;10.13;6.95;;;;;;;8.66;55.81;100489.50;5078035;28;20521;-78
2021/10/10 01:11:28;;;;;;;14.05;7.10;;;;;;;8.47;56.40;100490.47;5045427;28;20040;-79
2021/10/10 01:13:54;;;;;;;10.35;6.60;;;;;;;8.46;56.14;100487.88;5063462;28;20104;-79
2021/10/10 01:16:20;;;;;;;11.57;7.20;;;;;;;8.36;56.85;100492.81;5079070;28;20075;-78
2021/10/10 01:18:45;;;;;;;10.80;7.57;;;;;;;8.48;56.74;100502.84;5046121;28;20138;-78
2021/10/10 01:21:11;;;;;;;11.57;7.38;;;;;;;8.55;56.81;100502.53;5098927;28;20075;-78
2021/10/10 01:23:37;;;;;;;10.85;7.30;;;;;;;8.52;56.41;100496.41;5065821;28;20054;-77
2021/10/10 01:26:03;;;;;;;12.15;7.40;;;;;;;8.48;56.91;100497.50;5047978;28;20159;-77
2021/10/10 01:28:29;;;;;;;15.10;7.22;;;;;;;8.50;56.92;100500.97;5052304;28;20048;-78
2021/10/10 01:30:55;;;;;;;12.18;7.55;;;;;;;8.52;56.79;100498.22;5054073;28;20040;-77
2021/10/10 01:33:21;;;;;;;11.82;7.70;;;;;;;8.58;56.76;100491.72;5054973;28;20072;-79
2021/10/10 01:35:47;;;;;;;15.77;6.82;;;;;;;8.62;56.54;100491.47;5074776;28;20123;-78
2021/10/10 01:38:17;;;;;;;13.88;7.80;;;;;;;8.65;56.50;100488.63;5114114;28;20070;-83
2021/10/10 01:40:45;;;;;;;10.15;7.22;;;;;;;8.47;56.91;100498.47;5082623;28;20051;-80
2021/10/10 01:43:11;;;;;;;11.52;7.20;;;;;;;8.28;58.03;100492.34;5112228;28;20074;-82
2021/10/10 01:45:36;;;;;;;11.55;7.55;;;;;;;8.19;58.59;100495.47;5071835;28;20048;-81
2021/10/10 01:48:04;;;;;;;10.38;7.47;;;;;;;7.96;58.98;100470.03;5086825;28;20044;-83
2021/10/10 01:50:32;;;;;;;10.45;7.15;;;;;;;8.09;59.08;100489.78;5091381;28;20099;-84
2021/10/10 01:52:58;;;;;;;12.85;7.60;;;;;;;7.90;59.20;100460.56;5075727;28;20043;-84
2021/10/10 01:55:24;;;;;;;13.48;7.68;;;;;;;7.98;59.93;100481.50;5034177;28;20143;-84
2021/10/10 01:57:50;;;;;;;10.65;7.60;;;;;;;8.04;59.01;100465.19;5066133;28;20083;-85
2021/10/10 02:00:16;;;;;;;10.85;7.60;;;;;;;8.10;59.36;100474.66;5066927;28;20138;-85
2021/10/10 02:02:42;;;;;;;11.50;8.32;;;;;;;8.24;59.53;100477.47;5064567;28;20471;-86
2021/10/10 02:05:09;;;;;;;14.45;7.20;;;;;;;8.17;59.64;100473.41;5078817;28;20050;-85
2021/10/10 02:07:35;;;;;;;12.93;8.10;;;;;;;8.22;59.39;100484.66;5045061;28;20048;-86
2021/10/10 02:10:01;;;;;;;15.55;7.55;;;;;;;8.25;59.74;100484.53;5077914;28;20134;-85
2021/10/10 02:12:27;;;;;;;12.85;8.68;;;;;;;8.16;60.49;100485.88;5060958;28;20031;-84
2021/10/10 02:14:53;;;;;;;12.95;7.85;;;;;;;8.10;60.31;100466.69;5094262;28;20040;-87
2021/10/10 02:17:19;;;;;;;13.20;7.97;;;;;;;8.20;60.24;100481.25;5060785;28;20579;-86
2021/10/10 02:19:45;;;;;;;11.65;8.10;;;;;;;8.13;60.49;100469.19;5060335;28;20108;-87
2021/10/10 02:22:11;;;;;;;11.30;8.32;;;;;;;8.27;60.04;100483.50;5044391;28;20049;-87
2021/10/10 02:24:37;;;;;;;10.45;8.05;;;;;;;8.41;59.91;100485.47;5094041;28;20073;-87
2021/10/10 02:27:03;;;;;;;15.90;8.52;;;;;;;8.52;59.79;100480.41;5060837;28;20571;-86
2021/10/10 02:29:31;;;;;;;14.00;8.60;;;;;;;8.63;59.63;100473.66;5077023;28;20047;-86
2021/10/10 02:31:57;;;;;;;18.08;8.80;;;;;;;8.57;59.62;100474.84;5093527;28;20126;-85
2021/10/10 02:34:23;;;;;;;12.30;8.27;;;;;;;8.58;59.27;100478.38;5076880;28;20048;-86
2021/10/10 02:36:49;;;;;;;11.88;8.02;;;;;;;8.71;59.27;100493.63;5080783;28;20039;-85
2021/10/10 02:39:15;;;;;;;11.68;8.48;;;;;;;8.85;58.84;100484.03;5093734;28;20050;-85
2021/10/10 02:41:41;;;;;;;14.43;8.02;;;;;;;8.84;58.95;100487.63;5059736;28;20494;-85
2021/10/10 02:44:07;;;;;;;12.88;8.73;;;;;;;8.84;58.58;100469.84;5059594;28;20040;-84
2021/10/10 02:46:33;;;;;;;16.00;9.35;;;;;;;8.98;58.40;100477.91;5042958;28;20044;-86
2021/10/10 02:49:00;;;;;;;63.88;31.92;;;;;;;9.03;58.48;100471.47;5060571;28;20130;-86
2021/10/10 02:51:26;;;;;;;16.60;9.20;;;;;;;8.99;58.35;100487.66;5060954;28;20498;-83
2021/10/10 02:53:52;;;;;;;12.38;9.23;;;;;;;8.86;58.51;100467.94;5097707;28;20124;-83
2021/10/10 02:56:18;;;;;;;28.90;16.13;;;;;;;8.98;58.67;100480.56;5063280;28;20097;-83
2021/10/10 02:58:44;;;;;;;29.92;16.38;;;;;;;9.06;58.69;100487.31;5080229;28;20239;-85
2021/10/10 03:01:12;;;;;;;28.27;18.17;;;;;;;8.97;58.13;100468.19;5081263;28;20081;-85
2021/10/10 03:03:39;;;;;;;31.73;19.20;;;;;;;9.00;58.19;100478.72;5066589;28;20046;-85
2021/10/10 03:06:05;;;;;;;38.00;19.55;;;;;;;9.10;57.99;100500.41;5062343;28;20040;-86
2021/10/10 03:08:31;;;;;;;28.00;19.13;;;;;;;9.10;58.40;100499.50;5060290;28;20048;-85
2021/10/10 03:10:56;;;;;;;22.67;15.95;;;;;;;9.08;58.21;100504.09;5076369;28;20550;-85
2021/10/10 03:13:22;;;;;;;30.80;18.92;;;;;;;9.11;58.27;100496.78;5076553;28;20147;-84
2021/10/10 03:15:48;;;;;;;29.48;17.95;;;;;;;9.12;58.26;100508.31;5092797;28;20526;-84
2021/10/10 03:18:14;;;;;;;36.58;20.67;;;;;;;9.12;58.63;100509.16;5059765;28;20491;-85
2021/10/10 03:20:40;;;;;;;33.88;21.85;;;;;;;9.14;58.58;100501.06;5043079;28;20138;-86
2021/10/10 03:23:06;;;;;;;34.50;20.50;;;;;;;9.15;58.22;100505.47;5092353;28;20046;-78
2021/10/10 03:25:32;;;;;;;25.77;16.52;;;;;;;9.09;58.58;100504.00;5089522;28;20067;-85
2021/10/10 03:27:58;;;;;;;29.55;16.80;;;;;;;9.17;58.13;100506.25;5069364;28;20036;-86
2021/10/10 03:30:24;;;;;;;26.40;16.20;;;;;;;9.25;58.34;100514.66;5026111;28;20116;-83
2021/10/10 03:32:49;;;;;;;31.55;17.00;;;;;;;9.13;58.10;100499.34;5059444;28;20395;-87
2021/10/10 03:35:16;;;;;;;20.73;11.13;;;;;;;9.12;58.25;100513.66;5075751;28;20058;-87
2021/10/10 03:37:42;;;;;;;19.73;12.13;;;;;;;9.05;58.17;100517.59;5058246;28;20047;-90
2021/10/10 03:40:09;;;;;;;18.70;13.55;;;;;;;8.87;58.26;100508.78;5042761;28;20560;-84
2021/10/10 03:42:35;;;;;;;16.63;10.80;;;;;;;8.98;58.29;100507.25;5059319;28;20082;-78
2021/10/10 03:45:02;;;;;;;17.55;10.70;;;;;;;9.00;58.21;100494.72;5025697;28;20510;-79
2021/10/10 03:47:29;;;;;;;17.88;10.38;;;;;;;8.81;58.53;100496.66;5058673;28;20040;-79
2021/10/10 03:49:54;;;;;;;21.17;9.80;;;;;;;8.83;59.07;100513.41;5058536;28;20184;-79
2021/10/10 03:52:20;;;;;;;16.27;10.77;;;;;;;8.72;59.65;100510.47;5041864;28;20139;-78
2021/10/10 03:57:30;;;;;;;19.85;10.48;;;;;;;8.70;59.67;100523.03;5061051;28;20040;-81
2021/10/10 03:59:59;;;;;;;16.75;9.68;;;;;;;8.62;60.20;100514.59;5042114;28;20054;-78
2021/10/10 04:02:25;;;;;;;12.93;9.27;;;;;;;8.63;60.08;100510.97;5092125;28;20103;-79
2021/10/10 04:04:54;;;;;;;17.48;11.35;;;;;;;8.86;59.54;100523.91;5090675;28;20044;-77
2021/10/10 04:07:20;;;;;;;18.48;11.70;;;;;;;8.90;59.36;100503.28;5031400;28;20087;-78
2021/10/10 04:09:47;;;;;;;23.15;11.43;;;;;;;8.91;59.52;100516.56;5044563;28;20048;-77
2021/10/10 04:12:13;;;;;;;25.65;13.93;;;;;;;8.97;59.65;100521.53;5091818;28;20036;-76
2021/10/10 04:14:39;;;;;;;27.98;13.57;;;;;;;8.97;59.43;100505.53;5074922;28;20127;-79
2021/10/10 04:17:05;;;;;;;24.58;13.68;;;;;;;9.09;59.21;100522.66;5039463;28;20043;-77
2021/10/10 04:19:31;;;;;;;21.40;12.43;;;;;;;9.21;59.07;100524.69;5039363;28;20089;-78
2021/10/10 04:21:58;;;;;;;22.88;14.93;;;;;;;9.27;58.97;100520.78;5056778;28;20060;-78
2021/10/10 04:24:24;;;;;;;22.58;15.07;;;;;;;9.42;58.66;100511.94;5073484;28;20411;-78
2021/10/10 04:26:51;;;;;;;24.00;14.98;;;;;;;9.54;58.43;100510.34;5056487;28;20060;-79
2021/10/10 04:29:17;;;;;;;26.85;16.88;;;;;;;9.59;58.66;100507.41;5073317;28;20046;-78
2021/10/10 04:31:43;;;;;;;32.00;17.95;;;;;;;9.80;58.35;100516.88;5024164;28;20040;-78
2021/10/10 04:34:10;;;;;;;20.42;14.02;;;;;;;9.64;58.74;100505.38;5074251;28;20043;-79
2021/10/10 04:36:36;;;;;;;24.85;14.13;;;;;;;9.75;58.60;100513.63;5058205;28;20517;-79
2021/10/10 04:39:02;;;;;;;23.65;14.80;;;;;;;9.86;58.36;100510.34;5057809;28;20048;-78
2021/10/10 04:41:28;;;;;;;21.05;12.50;;;;;;;9.76;59.00;100515.34;5057947;28;20040;-79
2021/10/10 04:43:54;;;;;;;17.88;10.25;;;;;;;9.61;59.31;100516.22;5074578;28;20040;-78
2021/10/10 04:46:20;;;;;;;12.65;9.38;;;;;;;9.36;60.00;100496.25;5057996;28;20036;-79
2021/10/10 04:48:46;;;;;;;17.80;12.10;;;;;;;9.31;60.54;100500.13;5057888;28;20059;-77
2021/10/10 04:51:12;;;;;;;19.15;10.18;;;;;;;9.52;60.33;100511.41;5058795;28;20052;-78
2021/10/10 04:53:38;;;;;;;15.48;9.15;;;;;;;9.55;60.35;100519.22;5060059;28;20047;-79
2021/10/10 04:56:04;;;;;;;17.52;9.63;;;;;;;9.61;60.31;100510.88;5044078;28;20048;-79
2021/10/10 04:58:30;;;;;;;20.42;9.25;;;;;;;9.56;60.37;100492.47;5059793;28;20044;-76
2021/10/10 05:00:57;;;;;;;15.75;9.05;;;;;;;9.62;60.62;100509.91;5091937;28;20097;-80
2021/10/10 05:03:26;;;;;;;16.77;9.00;;;;;;;9.95;59.94;100509.78;5074244;28;20043;-79
2021/10/10 05:05:52;;;;;;;15.95;8.93;;;;;;;9.95;59.94;100502.63;5057721;28;20071;-78
2021/10/10 05:08:18;;;;;;;15.15;9.30;;;;;;;9.73;60.14;100499.47;5041284;28;20112;-80
2021/10/10 05:10:44;;;;;;;17.70;10.15;;;;;;;10.16;59.58;100507.66;5057528;28;20648;-78
2021/10/10 05:13:10;;;;;;;19.50;9.52;;;;;;;10.07;59.62;100510.84;5057558;28;20051;-79
2021/10/10 05:15:36;;;;;;;11.50;8.98;;;;;;;10.05;59.67;100515.44;5091498;28;20388;-78
2021/10/10 05:18:02;;;;;;;15.45;8.75;;;;;;;10.23;59.29;100509.00;5040971;28;20131;-80
2021/10/10 05:20:28;;;;;;;15.48;9.15;;;;;;;10.31;59.22;100511.25;5074480;28;20123;-79
2021/10/10 05:22:54;;;;;;;18.35;9.40;;;;;;;10.51;58.71;100518.06;5074232;28;20109;-78
2021/10/10 05:25:20;;;;;;;15.18;9.48;;;;;;;10.51;58.25;100518.06;5057643;28;20036;-78
2021/10/10 05:27:46;;;;;;;16.65;9.98;;;;;;;10.37;58.53;100503.69;5057922;28;20063;-79
2021/10/10 05:30:12;;;;;;;16.30;9.90;;;;;;;10.47;58.42;100522.72;5061575;28;20048;-79
2021/10/10 05:32:38;;;;;;;21.98;15.10;;;;;;;10.66;57.56;100523.31;5061252;28;20093;-78
2021/10/10 05:35:05;;;;;;;15.77;12.07;;;;;;;10.76;57.46;100522.78;5061059;28;20044;-80
2021/10/10 05:37:32;;;;;;;21.20;14.48;;;;;;;10.82;56.86;100531.25;5061610;28;20051;-80
2021/10/10 05:39:58;;;;;;;38.45;17.75;;;;;;;10.82;56.87;100527.72;5060844;28;20044;-79
2021/10/10 05:42:23;;;;;;;39.40;20.83;;;;;;;10.95;56.05;100531.34;5060534;28;20032;-77
2021/10/10 05:44:49;;;;;;;45.42;20.55;;;;;;;10.90;55.46;100520.06;5060608;28;20058;-79
2021/10/10 05:47:15;;;;;;;37.28;20.80;;;;;;;10.88;54.90;100516.66;5060805;28;20055;-80
2021/10/10 05:49:41;;;;;;;41.67;21.90;;;;;;;10.93;54.85;100518.06;5077564;28;20093;-78
2021/10/10 05:52:08;;;;;;;33.65;20.85;;;;;;;10.86;54.49;100519.41;5077409;28;20039;-81
2021/10/10 05:54:36;;;;;;;44.08;22.35;;;;;;;10.85;54.55;100522.19;5060935;28;20044;-79
2021/10/10 05:57:07;;;;;;;42.53;21.77;;;;;;;10.87;54.44;100526.50;5078685;28;20036;-80
2021/10/10 05:59:34;;;;;;;43.78;21.83;;;;;;;10.83;54.53;100535.66;5045410;28;20576;-79
2021/10/10 06:02:01;;;;;;;41.60;22.75;;;;;;;10.74;54.76;100514.81;5061364;28;20082;-80
2021/10/10 06:04:27;;;;;;;46.75;23.27;;;;;;;10.82;54.53;100539.28;5044090;28;20039;-78
2021/10/10 06:06:53;;;;;;;45.97;24.75;;;;;;;10.82;54.89;100539.28;5044029;28;20145;-80
2021/10/10 06:09:19;;;;;;;43.50;23.60;;;;;;;10.76;54.90;100531.66;5077163;28;20040;-78
2021/10/10 06:11:45;;;;;;;45.38;23.67;;;;;;;10.83;54.90;100535.66;5060496;28;20036;-79
2021/10/10 06:14:11;;;;;;;47.15;24.23;;;;;;;10.83;55.06;100535.66;5076861;28;20477;-78
2021/10/10 06:16:37;;;;;;;49.72;22.88;;;;;;;10.88;55.01;100522.84;5043728;28;20062;-78
2021/10/10 06:19:03;;;;;;;55.05;25.05;;;;;;;10.97;54.83;100532.09;5076907;28;20074;-78
2021/10/10 06:21:29;;;;;;;48.53;24.13;;;;;;;10.92;54.63;100537.75;5060464;28;20044;-79
2021/10/10 06:23:55;;;;;;;45.10;24.27;;;;;;;10.89;54.82;100532.59;5043191;28;20044;-77
2021/10/10 06:26:22;;;;;;;42.22;24.35;;;;;;;10.97;55.02;100539.28;5059663;28;20237;-78
2021/10/10 06:28:48;;;;;;;47.90;23.38;;;;;;;11.04;54.73;100521.88;5027309;28;20043;-79
2021/10/10 06:31:13;;;;;;;48.35;24.23;;;;;;;11.15;54.31;100519.38;5060444;28;20547;-78
2021/10/10 06:33:39;;;;;;;43.83;25.25;;;;;;;11.23;54.04;100532.28;5059953;28;20097;-79
2021/10/10 06:36:05;;;;;;;49.67;24.95;;;;;;;11.16;53.97;100518.44;5059816;28;20040;-79
2021/10/10 06:38:31;;;;;;;46.60;24.35;;;;;;;11.27;54.28;100534.66;5059626;28;20050;-78
2021/10/10 06:40:57;;;;;;;46.75;25.10;;;;;;;11.19;54.31;100518.22;5042981;28;20080;-79
2021/10/10 06:43:23;;;;;;;43.97;23.80;;;;;;;11.32;53.72;100537.91;5076604;28;20085;-79
2021/10/10 06:45:49;;;;;;;42.08;22.02;;;;;;;11.20;53.87;100533.31;5076258;28;20134;-80
2021/10/10 06:48:15;;;;;;;42.08;23.75;;;;;;;11.21;53.71;100524.38;5076528;28;20483;-79
2021/10/10 06:50:41;;;;;;;39.58;24.50;;;;;;;11.26;53.55;100529.41;5059664;28;20040;-79
2021/10/10 06:53:07;;;;;;;44.60;24.48;;;;;;;11.33;53.46;100530.75;5075980;28;20043;-78
2021/10/10 06:55:33;;;;;;;54.22;25.83;;;;;;;11.30;53.07;100534.47;5076184;28;20218;-79
2021/10/10 06:57:59;;;;;;;47.83;25.88;;;;;;;11.30;53.40;100538.97;5042901;28;20487;-79
2021/10/10 07:00:25;;;;;;;45.75;26.25;;;;;;;11.36;53.25;100530.56;5059562;28;20051;-77
2021/10/10 07:02:51;;;;;;;52.60;26.77;;;;;;;11.42;53.28;100527.47;5026410;28;20048;-78
2021/10/10 07:05:18;;;;;;;47.28;25.77;;;;;;;11.40;52.64;100518.69;5076006;28;20047;-78
2021/10/10 07:07:44;;;;;;;44.25;25.77;;;;;;;11.24;52.97;100518.78;5076833;28;20441;-78
2021/10/10 07:10:10;;;;;;;47.15;24.33;;;;;;;11.26;53.35;100542.81;5077033;28;20441;-79
2021/10/10 07:12:38;;;;;;;41.92;25.67;;;;;;;11.36;53.39;100543.94;5044631;28;20044;-77
2021/10/10 07:15:10;;;;;;;50.40;24.50;;;;;;;11.31;53.23;100525.47;5061564;28;20044;-78
2021/10/10 07:17:36;;;;;;;48.92;25.20;;;;;;;11.50;53.00;100535.00;5063938;28;20040;-79
2021/10/10 07:20:14;;;;;;;44.15;24.05;;;;;;;11.64;52.83;100538.50;5079035;28;20043;-79
2021/10/10 07:25:08;;;;;;;51.08;28.17;;;;;;;11.54;52.94;100540.03;5060728;28;20122;-78
2021/10/10 07:27:35;;;;;;;45.55;26.48;;;;;;;11.44;53.11;100530.91;5060125;28;20068;-79
2021/10/10 07:30:03;;;;;;;55.45;28.63;;;;;;;11.55;53.37;100548.97;5026324;28;20040;-79
2021/10/10 07:32:29;;;;;;;48.60;27.02;;;;;;;11.55;53.15;100528.41;5058923;28;20466;-80
2021/10/10 07:34:55;;;;;;;44.50;28.33;;;;;;;11.68;52.81;100544.50;5092226;28;20047;-77
2021/10/10 07:37:21;;;;;;;46.60;26.45;;;;;;;11.51;53.24;100547.41;5042134;28;20407;-79
2021/10/10 07:39:47;;;;;;;39.40;25.38;;;;;;;11.52;53.41;100527.75;5041890;28;20548;-79
2021/10/10 07:42:14;;;;;;;40.42;26.13;;;;;;;11.79;53.19;100547.34;5075362;28;20032;-79
2021/10/10 07:44:44;;;;;;;39.47;24.17;;;;;;;11.94;52.63;100555.38;5075308;28;20048;-79
2021/10/10 07:47:36;;;;;;;52.38;25.10;;;;;;;11.93;52.42;100537.59;5075685;28;20177;-78
2021/10/10 07:50:00;;;;;;;34.38;19.58;;;;;;;12.06;52.56;100554.53;5064859;28;20052;-78
2021/10/10 07:52:26;;;;;;;31.10;18.17;;;;;;;11.80;53.99;100548.19;5058172;28;20410;-79
2021/10/10 07:54:52;;;;;;;36.20;20.58;;;;;;;11.43;54.73;100561.31;5041902;28;20039;-79
2021/10/10 07:57:19;;;;;;;36.03;19.10;;;;;;;11.42;54.82;100544.38;5058367;28;20185;-78
2021/10/10 07:59:44;;;;;;;44.15;20.35;;;;;;;11.28;55.66;100547.06;5074775;28;20048;-79
2021/10/10 08:02:10;;;;;;;36.88;18.45;;;;;;;11.04;56.92;100554.00;5058832;28;20074;-78
2021/10/10 08:04:36;;;;;;;27.50;17.63;;;;;;;11.22;56.71;100560.88;5041965;28;20487;-79
2021/10/10 08:07:02;;;;;;;34.10;20.42;;;;;;;11.43;55.95;100551.47;5074821;28;20051;-79
2021/10/10 08:09:28;;;;;;;31.13;20.02;;;;;;;11.17;56.40;100549.59;5058259;28;20138;-79
2021/10/10 08:11:54;;;;;;;41.53;22.00;;;;;;;11.08;56.37;100552.84;5025110;28;20647;-77
2021/10/10 08:14:20;;;;;;;44.75;23.08;;;;;;;10.76;57.19;100555.72;5041662;28;20467;-78
2021/10/10 08:16:46;;;;;;;50.97;27.35;;;;;;;10.80;56.47;100557.25;5025199;28;20142;-80
2021/10/10 08:19:12;;;;;;;43.63;25.98;;;;;;;10.76;57.16;100555.72;5025387;28;20134;-78
2021/10/10 08:21:38;;;;;;;39.92;22.30;;;;;;;10.84;57.64;100557.91;5074493;28;20127;-78
2021/10/10 08:24:04;;;;;;;36.05;22.25;;;;;;;11.08;57.16;100547.50;5058035;28;20035;-78
2021/10/10 08:26:31;;;;;;;39.10;22.73;;;;;;;11.54;56.63;100552.56;5074494;28;20250;-78
2021/10/10 08:28:57;;;;;;;46.10;23.65;;;;;;;11.91;55.53;100556.44;5057744;28;20407;-79
2021/10/10 08:31:24;;;;;;;40.63;23.15;;;;;;;12.18;54.44;100551.03;5057786;28;20127;-79
2021/10/10 08:33:50;;;;;;;39.78;22.88;;;;;;;12.30;54.01;100536.81;5091271;28;20036;-79
2021/10/10 08:36:16;;;;;;;43.15;22.17;;;;;;;12.46;53.73;100559.91;5074111;28;20047;-78
2021/10/10 08:38:41;;;;;;;33.88;22.38;;;;;;;12.54;53.48;100558.41;5057902;28;20052;-78
2021/10/10 08:41:07;;;;;;;40.83;23.27;;;;;;;12.46;53.22;100541.13;5057727;28;20048;-78
2021/10/10 08:43:34;;;;;;;38.58;22.48;;;;;;;12.13;53.56;100542.47;5057786;28;20044;-79
2021/10/10 08:46:02;;;;;;;36.47;23.27;;;;;;;12.14;53.54;100536.13;5040909;28;20051;-78
2021/10/10 08:48:27;;;;;;;41.22;23.15;;;;;;;12.13;54.12;100534.41;5041567;28;20067;-78
2021/10/10 08:50:57;;;;;;;31.63;22.08;;;;;;;12.15;54.13;100543.22;5057755;28;20060;-80
2021/10/10 08:53:23;;;;;;;;;;;;;;;12.11;54.60;100557.75;5057997;28;20471;-78
2021/10/10 08:55:49;;;;;;;31.33;19.58;;;;;;;11.70;55.58;100550.66;5073895;28;19916;-78
2021/10/10 08:58:18;;;;;;;47.45;20.40;;;;;;;11.54;55.64;100557.94;5024117;28;20372;-80
2021/10/10 09:01:01;;;;;;;33.38;20.55;;;;;;;11.57;56.38;100560.41;5041038;28;20040;-78
2021/10/10 09:03:27;;;;;;;32.35;20.73;;;;;;;11.53;56.21;100549.03;5045718;28;20052;-78
2021/10/10 09:05:53;;;;;;;33.20;21.15;;;;;;;11.66;56.18;100557.16;5028315;28;20036;-78
2021/10/10 09:08:19;;;;;;;35.85;18.55;;;;;;;11.72;56.26;100567.47;5045176;28;20051;-79
2021/10/10 09:10:45;;;;;;;27.55;17.10;;;;;;;11.43;57.55;100547.91;5061791;28;20036;-79
2021/10/10 09:13:13;;;;;;;25.58;17.55;;;;;;;11.62;57.01;100566.31;5028340;28;20067;-78
2021/10/10 09:15:41;;;;;;;26.90;19.17;;;;;;;11.70;56.85;100555.13;5044612;28;20052;-79
2021/10/10 09:18:08;;;;;;;30.05;16.70;;;;;;;11.71;56.96;100551.50;5061901;28;20063;-77
2021/10/10 09:20:44;;;;;;;42.25;17.95;;;;;;;11.97;57.04;100564.06;5044742;28;20036;-78
2021/10/10 09:23:30;;;;;;;32.17;17.17;;;;;;;12.16;56.77;100558.34;5079795;28;20530;-79
2021/10/10 09:26:03;;;;;;;20.20;15.20;;;;;;;11.93;57.23;100542.94;5062849;28;20159;-77
2021/10/10 09:28:31;;;;;;;22.50;15.02;;;;;;;12.28;57.21;100560.19;5047267;28;20072;-78
2021/10/10 09:31:07;;;;;;;19.05;13.23;;;;;;;12.34;56.61;100564.28;5078269;28;20071;-78
2021/10/10 09:33:43;;;;;;;22.15;14.05;;;;;;;12.50;56.47;100564.09;5044525;28;20040;-77
2021/10/10 09:36:17;;;;;;;21.23;13.13;;;;;;;12.55;56.13;100557.44;5061630;28;20066;-79
2021/10/10 09:38:52;;;;;;;19.77;14.35;;;;;;;12.61;56.21;100540.06;5061979;28;20040;-78
2021/10/10 09:41:29;;;;;;;22.20;13.65;;;;;;;12.74;56.33;100562.38;5062727;28;20433;-79
2021/10/10 09:43:59;;;;;;;19.90;13.02;;;;;;;13.08;55.67;100560.00;5046796;28;20547;-78
2021/10/10 09:46:25;;;;;;;18.63;12.93;;;;;;;13.54;54.87;100548.66;5060862;28;20557;-79
2021/10/10 09:48:51;;;;;;;17.88;12.20;;;;;;;14.02;53.77;100552.22;5061008;28;20123;-78
2021/10/10 09:51:31;;;;;;;18.33;12.55;;;;;;;14.38;52.85;100557.66;5060836;28;20066;-77
2021/10/10 09:54:04;;;;;;;20.98;13.20;;;;;;;14.60;52.50;100549.66;5077523;28;20048;-77
2021/10/10 09:56:30;;;;;;;22.25;14.32;;;;;;;14.41;51.46;100547.50;5043898;28;20040;-78
2021/10/10 09:58:56;;;;;;;25.02;14.77;;;;;;;14.62;51.38;100553.06;5077484;28;20051;-78
2021/10/10 10:01:23;;;;;;;28.42;12.27;;;;;;;14.44;51.18;100546.38;5077140;28;20473;-78
2021/10/10 10:04:06;;;;;;;21.30;12.93;;;;;;;14.52;51.47;100541.34;5060444;28;20487;-79
2021/10/10 10:06:36;;;;;;;22.83;13.50;;;;;;;14.50;51.13;100548.66;5077034;28;20127;-78
2021/10/10 10:09:03;;;;;;;17.23;12.25;;;;;;;14.67;51.28;100556.28;5093713;28;20051;-78
2021/10/10 10:11:31;;;;;;;24.73;14.38;;;;;;;14.77;50.73;100554.56;5043909;28;20093;-79
2021/10/10 10:13:58;;;;;;;17.50;11.95;;;;;;;14.49;50.64;100549.59;5076533;28;20059;-78
2021/10/10 10:16:24;;;;;;;17.58;11.93;;;;;;;14.56;50.92;100556.25;5043630;28;20044;-80
2021/10/10 10:18:50;;;;;;;19.95;12.60;;;;;;;14.60;50.80;100555.03;5026914;28;20043;-79
2021/10/10 10:21:16;;;;;;;22.05;12.52;;;;;;;14.71;50.76;100551.53;5043500;28;20447;-79
2021/10/10 10:23:42;;;;;;;19.58;13.13;;;;;;;14.87;49.95;100562.78;5093739;28;20119;-78
2021/10/10 10:26:08;;;;;;;21.35;13.32;;;;;;;14.70;50.00;100553.34;5093199;28;20503;-78
2021/10/10 10:28:34;;;;;;;19.88;13.10;;;;;;;14.65;50.29;100563.59;5077597;28;20479;-78
2021/10/10 10:31:00;;;;;;;16.95;11.05;;;;;;;14.23;50.64;100555.16;5043333;28;20051;-79
2021/10/10 10:33:30;;;;;;;18.23;11.65;;;;;;;14.23;50.88;100554.28;5059890;28;20044;-79
2021/10/10 10:35:56;;;;;;;15.30;11.00;;;;;;;14.21;50.68;100537.41;5076984;28;20514;-78
2021/10/10 10:39:01;;;;;;;19.50;11.68;;;;;;;14.30;50.58;100550.16;5060034;28;20039;-79
2021/10/10 10:41:59;;;;;;;19.08;11.23;;;;;;;13.85;51.26;100545.44;4983228;28;20073;-80
2021/10/10 10:44:44;;;;;;;14.52;10.45;;;;;;;13.28;52.56;100556.81;4967750;28;20061;-78
2021/10/10 10:47:12;;;;;;;17.98;10.98;;;;;;;13.26;52.60;100550.69;5045622;28;20073;-79
2021/10/10 10:49:51;;;;;;;23.67;12.63;;;;;;;13.20;53.00;100547.53;5042773;28;20044;-79
2021/10/10 10:52:33;;;;;;;20.23;12.43;;;;;;;13.16;53.12;100530.78;5059727;28;20511;-80
2021/10/10 10:55:18;;;;;;;24.15;12.02;;;;;;;13.27;53.36;100549.69;5060504;28;20048;-79
2021/10/10 10:57:56;;;;;;;22.13;13.23;;;;;;;13.21;52.89;100539.38;5093109;28;20085;-79
2021/10/10 11:00:28;;;;;;;29.13;15.02;;;;;;;12.96;53.94;100536.72;5043009;28;20067;-78
2021/10/10 11:03:01;;;;;;;21.98;13.15;;;;;;;13.03;53.95;100551.44;5075882;28;20079;-79
2021/10/10 11:05:36;;;;;;;20.58;12.60;;;;;;;13.10;53.92;100552.72;5043202;28;20044;-81
2021/10/10 11:08:25;;;;;;;21.33;11.57;;;;;;;13.05;53.80;100549.47;5094043;28;20044;-79
2021/10/10 11:11:01;;;;;;;;;;;;;;;13.03;53.82;100541.56;5082665;28;20414;-78
2021/10/10 11:13:28;;;;;;;19.90;12.45;;;;;;;12.81;54.48;100547.56;5075859;28;20363;-80
2021/10/10 11:16:03;;;;;;;17.60;11.70;;;;;;;12.68;54.65;100544.03;5042619;28;20035;-80
2021/10/10 11:18:29;;;;;;;19.65;12.55;;;;;;;12.70;54.66;100549.28;5060473;28;20044;-78
2021/10/10 11:20:56;;;;;;;21.40;12.07;;;;;;;12.76;54.59;100544.38;5058381;28;20055;-77
2021/10/10 11:23:24;;;;;;;21.73;12.27;;;;;;;12.72;54.51;100548.22;5059651;28;20070;-78